Station: Penrith  

  Atmospheric Gas Attenuation - ITU Rec 676-11   ----------------- dB/100km -----------------
Date Time Temp RH % AH g/m3 Dew Point Wind Direction Speed kph Gust kph Barometer mB Rainfall Since 9am 24GHz 47GHz 76GHz 122GHz 134GHz 241GHz
08/05 12:30 20.8 38 6.88 6 15 24 1013.1 0 15.6 21.5 30.4 79.4 70.0 239.7
08/05 12:20 20.4 37 6.54 5.2 15 20 1013.1 0 15.0 21.1 29.4 76.7 66.5 227.5
08/05 12:10 20.4 37 6.54 5.2 9 11 1013.1 0 15.0 21.1 29.4 76.7 66.5 227.5
08/05 12:00 20.4 37 6.54 5.2 15 20 1013.1 0 15.0 21.1 29.4 76.7 66.5 227.5
08/05 11:50 20.4 38 6.72 5.6 19 26 1013.1 0 15.3 21.4 30.0 78.3 68.5 234.6
08/05 11:40 20.5 40 7.12 6.4 6 7 1013.1 0 16.2 21.9 31.3 81.9 73.0 250.2
08/05 11:30 20.4 41 7.25 6.7 6 11 1013.1 0 16.4 22.1 31.8 83.2 74.5 255.7
08/05 11:20 20.1 42 7.3 6.8 4 4 1013.1 0 16.6 22.2 32.1 84.0 75.4 258.7
08/05 11:10 19.5 42 7.05 6.2 6 7 1013.1 0 16.1 22.0 31.5 82.3 73.1 250.4
08/05 11:00 19.6 44 7.43 7 6 9 1013.1 0 16.9 22.6 32.8 85.8 77.4 265.6
08/05 10:50 19.1 46 7.54 7.2 6 7 1013.1 0 17.1 22.8 33.4 87.3 79.2 271.8
08/05 10:40 19 43 7.01 6.4 2 2 1013.1 0 16.0 22.1 31.5 82.4 73.1 250.3
08/05 10:30 17.5 45 6.71 5.4 4 7 1013.1 0 15.4 22.0 31.0 81.1 70.9 242.6
08/05 10:20 17 46 6.66 5.3 2 4 1013.1 0 15.3 22.1 31.0 81.1 70.8 242.1
08/05 10:10 16.9 50 7.19 6.4 4 4 1013.1 0 16.5 22.9 33.0 86.3 77.2 264.5
08/05 10:00 16.1 55 7.54 7.1 4 6 1013.1 0 17.2 23.6 34.6 90.7 82.2 282.1
08/05 09:50 16.3 53 7.35 6.7 6 6 1013.1 0 16.8 23.3 33.8 88.5 79.7 273.3
08/05 09:40 15 56 7.18 6.3 2 2 1013.1 0 16.5 23.3 33.7 88.3 78.9 270.4
08/05 09:30 15.6 55 7.31 6.6 4 7 1013.1 0 16.8 23.4 34.0 88.9 79.9 273.9
08/05 09:20 15.4 55 7.23 6.4 2 2 1013.1 0 16.6 23.3 33.8 88.3 79.1 271.2
08/05 09:10 13.6 59 6.94 5.7 0 0 1013.1 0 16.1 23.3 33.4 87.4 77.3 264.6
08/05 09:00 13.1 59 6.73 5.3 0 4 1013.1 0 15.6 23.1 32.8 85.8 75.2 257.1
08/05 08:50 13 62 7.03 5.9 2 2 1013.1 0 16.3 23.6 34.0 89.0 79.0 270.6
08/05 08:40 11.5 65 6.71 5.3 4 4 1013.1 0 15.7 23.5 33.4 87.4 76.5 261.4
08/05 08:30 11 67 6.71 5.1 4 6 1013.1 0 15.7 23.7 33.6 87.9 77.0 263.1
08/05 08:20 11.2 66 6.69 5.1 4 4 1013.1 0 15.6 23.6 33.5 87.5 76.5 261.5
08/05 08:10 10.4 65 6.27 4.1 6 7 1013.1 0 14.8 23.1 32.2 84.1 72.0 245.4
08/05 08:00 10.3 73 6.99 5.7 2 4 1013.1 0 16.3 24.3 35.0 91.7 81.3 278.1
08/05 07:50 9.5 76 6.92 5.6 4 4 1013.1 0 16.2 24.4 35.1 91.8 81.2 277.8
08/05 07:40 8.1 78 6.49 4.5 4 4 1013.1 0 15.3 24.1 34.0 88.9 77.0 262.7
08/05 07:30 7.3 82 6.48 4.4 2 9 1013.1 0 15.3 24.3 34.3 89.7 77.7 265.0
08/05 07:20 6.8 83 6.35 4.1 7 7 1013.1 0 15.1 24.2 34.0 88.8 76.4 260.6
08/05 07:10 6 83 6.03 3.3 7 7 1013.1 0 14.4 23.9 33.0 86.3 72.9 248.2
08/05 07:00 5.9 84 6.06 3.4 2 2 1013.1 0 14.5 24.0 33.2 86.7 73.4 249.9
08/05 06:50 5.1 83 5.68 2.4 2 2 1013.1 0 13.7 23.6 32.0 83.5 69.1 234.7
08/05 06:40 5.7 84 5.98 3.2 0 0 1013.1 0 14.3 23.9 32.9 86.1 72.6 246.8
08/05 06:30 5.3 81 5.62 2.3 0 0 1013.1 0 13.6 23.4 31.7 82.6 68.1 231.3
08/05 06:20 5.3 80 5.55 2.1 0 0 1013.1 0 13.4 23.3 31.4 81.9 67.2 228.1
08/05 06:10 4.7 81 5.4 1.7 2 4 1013.1 0 13.1 23.2 31.0 80.9 65.8 222.9
08/05 06:00 4.8 79 5.3 1.5 4 6 1013.1 0 12.9 23.0 30.6 79.8 64.4 218.0
08/05 05:50 5.4 81 5.66 2.4 4 6 1013.1 0 13.6 23.5 31.8 83.0 68.6 232.9
08/05 05:40 5.6 81 5.73 2.6 11 11 1013.1 0 13.8 23.5 32.0 83.5 69.3 235.5
08/05 05:30 5.3 83 5.76 2.7 7 11 1013.1 0 13.9 23.6 32.2 84.1 70.0 237.8
08/05 05:20 5.1 83 5.68 2.4 9 9 1013.1 0 13.7 23.6 32.0 83.5 69.1 234.7
08/05 05:10 5.3 84 5.83 2.9 6 7 1013.1 0 14.0 23.8 32.5 84.9 70.9 241.1
08/05 05:00 5.6 84 5.94 3.1 7 11 1013.1 0 14.2 23.9 32.8 85.8 72.1 245.3
08/05 04:50 6.8 80 6.12 3.6 4 4 1013.1 0 14.6 23.8 33.1 86.4 73.4 249.9
08/05 04:40 6.1 78 5.7 2.5 6 6 1013.1 0 13.7 23.3 31.7 82.6 68.5 232.7
08/05 04:30 6.4 78 5.82 2.9 2 6 1013.1 0 13.9 23.5 32.0 83.6 69.8 237.3
08/05 04:20 6.8 77 5.89 3 6 6 1013.1 0 14.1 23.5 32.1 83.9 70.4 239.3
08/05 04:10 7 83 6.43 4.3 4 4 1013.1 0 15.2 24.3 34.2 89.5 77.3 263.6
08/05 04:00 7.2 76 5.97 3.3 6 11 1013.1 0 14.2 23.5 32.3 84.3 71.0 241.7
08/05 03:50 7 80 6.2 3.8 6 6 1013.1 0 14.7 23.9 33.3 87.0 74.2 252.9
08/05 03:40 7.6 74 5.96 3.2 6 6 1013.1 0 14.2 23.4 32.1 83.8 70.5 240.0
08/05 03:30 7.7 79 6.41 4.3 4 7 1013.1 0 15.2 24.1 33.8 88.5 76.3 260.4
08/05 03:20 7.5 83 6.65 4.8 2 2 1013.1 0 15.7 24.5 34.9 91.3 79.7 272.2
08/05 03:10 7.6 81 6.53 4.5 4 6 1013.1 0 15.4 24.3 34.4 89.9 78.0 266.3
08/05 03:00 8.6 81 6.96 5.5 4 6 1013.1 0 16.3 24.7 35.7 93.3 82.7 282.8
08/05 02:50 8.3 76 6.41 4.3 4 4 1013.1 0 15.1 23.9 33.6 87.8 75.7 258.4
08/05 02:40 8.7 73 6.32 4.1 4 4 1013.1 0 14.9 23.6 33.1 86.4 74.2 253.0
08/05 02:30 9.4 69 6.24 4 4 9 1013.1 0 14.7 23.3 32.5 84.8 72.5 247.2
08/05 02:20 8.1 73 6.08 3.5 6 7 1013.1 0 14.4 23.4 32.4 84.5 71.6 244.0
08/05 02:10 7.4 66 5.25 1.4 6 7 1013.1 0 12.7 22.3 29.4 76.7 61.6 208.7
08/05 02:00 8.1 64 5.33 1.7 4 7 1013.1 0 12.8 22.3 29.5 76.8 62.1 210.4
08/05 01:50 7.6 65 5.24 1.4 0 0 1013.1 0 12.7 22.2 29.3 76.4 61.4 207.8
08/05 01:40 8.5 65 5.55 2.3 0 0 1013.1 0 13.3 22.5 30.2 78.6 64.5 219.1
08/05 01:30 7.8 72 5.88 3.1 0 2 1013.1 0 14.0 23.2 31.7 82.8 69.3 235.8
08/05 01:20 8.7 59 5.1 1.3 2 2 1013.1 0 12.3 21.8 28.4 73.9 58.8 198.9
08/05 01:10 8.5 59 5.04 0.9 6 6 1013.1 0 12.2 21.7 28.2 73.5 58.2 196.8
08/05 01:00 8.3 58 4.89 0.5 0 4 1013.1 0 11.9 21.5 27.7 72.2 56.5 190.8
08/05 00:50 8.6 57 4.9 0.5 2 4 1013.1 0 11.9 21.5 27.7 72.0 56.4 190.5
08/05 00:40 9 55 4.85 0.4 4 6 1013.1 0 11.8 21.3 27.4 71.2 55.5 187.4
08/05 00:20 9.4 52 4.7 0 4 6 1013.1 0 11.4 21.0 26.7 69.4 53.4 180.2
08/05 00:10 9.8 49 4.55 -0.4 4 6 1013.1 0 11.1 20.7 26.0 67.6 51.4 173.0
08/05 00:00 8.7 54 4.67 -0.1 2 6 1013.1 0 11.4 21.1 26.8 69.7 53.5 180.4
07/05 23:50 9.3 54 4.85 0.4 0 0 1013.1 0 11.8 21.2 27.3 70.9 55.3 186.7
07/05 23:40 9.1 52 4.62 -0.3 2 2 1013.1 0 11.3 21.0 26.5 68.8 52.7 177.4
07/05 23:30 9.9 49 4.58 -0.3 4 9 1013.1 0 11.2 20.7 26.1 67.8 51.7 174.0
07/05 23:20 9.9 50 4.67 -0.1 6 7 1013.1 0 11.4 20.8 26.4 68.6 52.7 177.8
07/05 23:10 10.4 49 4.72 0.1 6 6 1013.1 0 11.5 20.8 26.4 68.7 53.0 178.8
07/05 23:00 10.7 48 4.72 0.2 11 19 1013.1 0 11.4 20.7 26.3 68.4 52.8 178.1
07/05 22:50 10.1 52 4.92 0.7 15 19 1013.1 0 11.9 21.2 27.3 70.9 55.6 187.8
07/05 22:40 9.7 55 5.07 1.1 7 11 1013.1 0 12.2 21.5 27.9 72.7 57.7 195.1
07/05 22:30 9.6 55 5.04 1 7 17 1013.1 0 12.2 21.5 27.9 72.5 57.4 194.1
07/05 22:20 9.7 52 4.8 0.3 6 7 1013.1 0 11.6 21.1 27.0 70.1 54.4 183.7
07/05 22:10 8.8 57 4.96 0.7 4 4 1013.1 0 12.0 21.5 27.8 72.4 57.0 192.6
07/05 22:00 9.5 56 5.1 1.2 2 6 1013.1 0 12.3 21.6 28.1 73.2 58.2 196.9
07/05 21:50 9.5 52 4.73 0.1 4 6 1013.1 0 11.5 21.0 26.8 69.6 53.7 181.2
07/05 21:40 9.3 49 4.4 -0.9 4 4 1013.1 0 10.8 20.6 25.6 66.6 49.9 167.8
07/05 21:30 9.9 47 4.39 -0.9 4 6 1013.1 0 10.8 20.4 25.4 66.0 49.4 166.2
07/05 21:20 10.5 45 4.37 -1 6 7 1013.1 0 10.7 20.3 25.2 65.3 48.8 164.1
07/05 21:10 9.4 49 4.43 -0.8 9 11 1013.1 0 10.9 20.6 25.7 66.8 50.2 168.8
07/05 21:00 10.2 46 4.38 -0.9 2 6 1013.1 0 10.7 20.4 25.3 65.6 49.1 165.1
07/05 20:50 10.8 43 4.25 -1.3 7 9 1013.1 0 10.4 20.0 24.7 63.9 47.2 158.6
07/05 20:40 10.7 45 4.42 -0.8 7 11 1013.1 0 10.8 20.3 25.3 65.6 49.3 165.8
07/05 20:30 10.9 45 4.48 -0.5 7 13 1013.1 0 10.9 20.3 25.4 66.0 49.9 167.8
07/05 20:20 11.1 44 4.43 -0.7 9 11 1013.1 0 10.8 20.2 25.2 65.4 49.1 165.4
07/05 20:10 11.4 42 4.31 -1.1 11 15 1013.1 0 10.6 20.0 24.7 64.0 47.6 159.9
07/05 20:00 11.8 41 4.32 -1 13 28 1013.1 0 10.6 19.9 24.6 63.8 47.5 159.5
07/05 19:50 11.6 42 4.37 -0.9 7 9 1013.1 0 10.7 20.0 24.8 64.4 48.2 161.9

Last Refresh: 08-May-2026 12:08:50

Bureau of Meteorology